createdAt,value
2019-01-08T00:00:50.097Z,24.9
2019-01-08T00:02:50.188Z,25.5
2019-01-08T00:04:49.660Z,25.2
2019-01-08T00:06:49.859Z,25.2
2019-01-08T00:08:49.810Z,24.4
2019-01-08T00:10:49.727Z,24.4
2019-01-08T00:12:49.827Z,26.0
2019-01-08T00:14:49.793Z,24.9
2019-01-08T00:16:50.027Z,24.1
2019-01-08T00:18:50.093Z,23.9
2019-01-08T00:20:50.048Z,23.9
2019-01-08T00:22:50.091Z,25.0
2019-01-08T00:24:50.079Z,24.3
2019-01-08T00:26:50.269Z,23.1
2019-01-08T00:28:50.220Z,23.1
2019-01-08T00:30:50.216Z,24.6
2019-01-08T00:32:50.189Z,24.1
2019-01-08T00:34:49.613Z,23.8
2019-01-08T00:36:49.834Z,24.1
2019-01-08T00:38:49.855Z,24.1
2019-01-08T00:40:49.941Z,23.9
2019-01-08T00:42:49.934Z,23.2
2019-01-08T00:44:49.906Z,23.2
2019-01-08T00:46:50.112Z,23.2
2019-01-08T00:48:50.126Z,22.0
2019-01-08T00:50:50.132Z,22.3
2019-01-08T00:52:50.150Z,20.5
2019-01-08T00:54:50.076Z,20.3
2019-01-08T00:56:50.305Z,20.3
2019-01-08T00:58:51.951Z,20.3
2019-01-08T01:00:50.001Z,20.4
2019-01-08T01:02:50.035Z,20.6
2019-01-08T01:04:50.311Z,20.2
2019-01-08T01:06:49.611Z,20.2
2019-01-08T01:08:49.641Z,20.3
2019-01-08T01:10:49.654Z,20.7
2019-01-08T01:12:49.689Z,20.8
2019-01-08T01:14:49.785Z,19.8
2019-01-08T01:16:49.938Z,19.8
2019-01-08T01:18:49.953Z,21.2
2019-01-08T01:20:49.983Z,20.1
2019-01-08T01:22:49.980Z,20.1
2019-01-08T01:24:49.949Z,20.1
2019-01-08T01:26:50.173Z,20.1
2019-01-08T01:28:50.167Z,20.0
2019-01-08T01:30:50.107Z,17.1
2019-01-08T01:32:50.078Z,17.9
2019-01-08T01:34:50.408Z,18.0
2019-01-08T01:36:49.651Z,18.0
2019-01-08T01:38:49.654Z,16.9
2019-01-08T01:40:49.681Z,16.5
2019-01-08T01:42:49.684Z,16.3
2019-01-08T01:44:49.680Z,15.6
2019-01-08T01:46:49.902Z,15.6
2019-01-08T01:48:49.925Z,16.6
2019-01-08T01:50:49.947Z,15.9
2019-01-08T01:52:49.946Z,15.8
2019-01-08T01:54:49.881Z,15.8
2019-01-08T01:56:50.022Z,14.4
2019-01-08T01:58:50.021Z,14.5
2019-01-08T02:00:50.016Z,14.1
2019-01-08T02:02:50.068Z,13.3
2019-01-08T02:04:49.510Z,13.3
2019-01-08T02:06:49.812Z,13.0
2019-01-08T02:08:49.807Z,12.2
2019-01-08T02:10:49.751Z,12.8
2019-01-08T02:12:49.744Z,11.6
2019-01-08T02:14:50.068Z,11.6
2019-01-08T02:16:50.216Z,11.8
2019-01-08T02:18:50.265Z,11.7
2019-01-08T02:20:50.296Z,11.7
2019-01-08T02:22:50.404Z,11.3
2019-01-08T02:24:50.510Z,11.3
2019-01-08T02:26:49.848Z,10.8
2019-01-08T02:28:49.920Z,11.1
2019-01-08T02:30:49.865Z,11.1
2019-01-08T02:32:49.903Z,9.9
2019-01-08T02:34:50.133Z,9.9
2019-01-08T02:36:50.230Z,9.5
2019-01-08T02:38:50.197Z,10.5
2019-01-08T02:40:50.258Z,9.9
2019-01-08T02:42:50.226Z,9.7
2019-01-08T02:44:50.425Z,9.7
2019-01-08T02:46:50.362Z,10.3
2019-01-08T02:48:50.308Z,10.0
2019-01-08T02:50:50.354Z,10.0
2019-01-08T02:52:50.352Z,9.7
2019-01-08T02:54:50.717Z,9.7
2019-01-08T02:56:50.159Z,10.6
2019-01-08T02:58:50.206Z,10.6
2019-01-08T03:00:50.185Z,10.4
2019-01-08T03:02:50.174Z,10.4
2019-01-08T03:04:49.578Z,10.7
2019-01-08T03:06:50.016Z,10.1
2019-01-08T03:08:50.417Z,10.2
2019-01-08T03:10:50.455Z,10.4
2019-01-08T03:12:50.447Z,10.4
2019-01-08T03:14:50.415Z,9.7
2019-01-08T03:16:49.694Z,9.5
2019-01-08T03:18:49.710Z,7.9
2019-01-08T03:20:49.841Z,7.9
2019-01-08T03:22:49.749Z,8.3
2019-01-08T03:24:49.733Z,7.8
2019-01-08T03:26:50.010Z,7.0
2019-01-08T03:28:50.001Z,7.0
2019-01-08T03:30:50.022Z,7.2
2019-01-08T03:32:49.999Z,6.9
2019-01-08T03:34:50.347Z,6.6
2019-01-08T03:36:49.622Z,6.5
2019-01-08T03:38:49.662Z,6.5
2019-01-08T03:40:49.588Z,6.7
2019-01-08T03:42:49.697Z,6.5
2019-01-08T03:44:49.682Z,6.0
2019-01-08T03:46:49.959Z,6.4
2019-01-08T03:48:49.937Z,6.4
2019-01-08T03:50:49.867Z,5.7
2019-01-08T03:52:49.875Z,5.2
2019-01-08T03:54:49.834Z,5.5
2019-01-08T03:56:50.147Z,5.0
2019-01-08T03:58:50.059Z,5.0
2019-01-08T04:00:50.110Z,4.5
2019-01-08T04:02:50.106Z,4.5
2019-01-08T04:04:50.479Z,4.6
2019-01-08T04:06:49.736Z,4.6
2019-01-08T04:08:49.743Z,4.4
2019-01-08T04:10:49.810Z,4.4
2019-01-08T04:12:49.793Z,4.2
2019-01-08T04:14:49.773Z,4.3
2019-01-08T04:16:49.894Z,4.3
2019-01-08T04:18:50.026Z,3.8
2019-01-08T04:20:50.073Z,3.8
2019-01-08T04:22:50.026Z,4.3
2019-01-08T04:24:50.068Z,3.9
2019-01-08T04:26:50.253Z,3.9
2019-01-08T04:28:50.240Z,3.9
2019-01-08T04:30:50.183Z,3.4
2019-01-08T04:32:50.235Z,3.8
2019-01-08T04:34:50.478Z,3.4
2019-01-08T04:36:49.791Z,3.3
2019-01-08T04:38:49.776Z,3.3
2019-01-08T04:40:49.718Z,3.4
2019-01-08T04:42:49.749Z,3.3
2019-01-08T04:44:49.775Z,3.6
2019-01-08T04:46:49.946Z,3.6
2019-01-08T04:48:49.971Z,3.3
2019-01-08T04:50:49.986Z,3.5
2019-01-08T04:52:49.948Z,3.1
2019-01-08T04:54:49.936Z,3.6
2019-01-08T04:56:50.259Z,3.6
2019-01-08T04:58:50.202Z,3.4
2019-01-08T05:00:50.190Z,3.7
2019-01-08T05:02:50.225Z,3.7
2019-01-08T05:04:49.544Z,3.7
2019-01-08T05:06:49.832Z,6.6
2019-01-08T05:08:49.762Z,3.6
2019-01-08T05:10:49.712Z,3.6
2019-01-08T05:12:49.876Z,3.5
2019-01-08T05:14:49.859Z,3.4
2019-01-08T05:16:50.070Z,3.4
2019-01-08T05:18:50.127Z,3.5
2019-01-08T05:20:50.109Z,3.2
2019-01-08T05:22:50.297Z,4.0
2019-01-08T05:24:50.272Z,3.5
2019-01-08T05:26:50.011Z,3.5
2019-01-08T05:28:49.984Z,3.7
2019-01-08T05:30:49.968Z,3.7
2019-01-08T05:32:49.969Z,3.8
2019-01-08T05:34:50.322Z,3.8
2019-01-08T05:36:49.604Z,3.6
2019-01-08T05:38:49.663Z,3.6
2019-01-08T05:40:49.636Z,3.7
2019-01-08T05:42:49.646Z,3.4
2019-01-08T05:44:49.746Z,3.2
2019-01-08T05:46:49.791Z,3.2
2019-01-08T05:48:49.888Z,3.4
2019-01-08T05:50:49.901Z,3.4
2019-01-08T05:52:49.923Z,3.4
2019-01-08T05:54:49.917Z,3.4
2019-01-08T05:56:50.131Z,3.7
2019-01-08T05:58:50.132Z,3.3
2019-01-08T06:00:50.117Z,3.5
2019-01-08T06:02:50.078Z,3.6
2019-01-08T06:04:50.360Z,3.6
2019-01-08T06:06:49.607Z,3.4
2019-01-08T06:08:49.632Z,3.1
2019-01-08T06:10:49.690Z,3.4
2019-01-08T06:12:49.802Z,3.3
2019-01-08T06:14:49.863Z,3.3
2019-01-08T06:16:50.058Z,3.2
2019-01-08T06:18:50.052Z,3.2
2019-01-08T06:20:49.988Z,3.2
2019-01-08T06:22:49.932Z,3.2
2019-01-08T06:24:49.933Z,3.3
2019-01-08T06:26:50.244Z,3.3
2019-01-08T06:28:50.227Z,3.2
2019-01-08T06:30:50.133Z,3.3
2019-01-08T06:32:50.082Z,3.3
2019-01-08T06:34:49.519Z,2.9
2019-01-08T06:36:50.373Z,2.9
2019-01-08T06:38:50.365Z,3.4
2019-01-08T06:40:58.030Z,3.5
2019-01-08T06:42:50.189Z,3.5
2019-01-08T06:44:50.168Z,3.1
2019-01-08T06:46:50.302Z,3.6
2019-01-08T06:48:50.341Z,3.5
2019-01-08T06:50:56.540Z,3.5
2019-01-08T06:52:49.685Z,3.9
2019-01-08T06:54:49.657Z,3.4
2019-01-08T06:56:49.853Z,3.7
2019-01-08T06:58:49.927Z,4.0
2019-01-08T07:00:49.969Z,3.8
2019-01-08T07:02:49.940Z,3.8
2019-01-08T07:04:50.167Z,4.2
2019-01-08T07:06:50.438Z,4.2
2019-01-08T07:08:50.456Z,4.3
2019-01-08T07:10:49.520Z,4.3
2019-01-08T07:12:49.576Z,4.3
2019-01-08T07:14:49.560Z,4.5
2019-01-08T07:16:49.628Z,4.7
2019-01-08T07:18:49.637Z,4.7
2019-01-08T07:20:49.706Z,4.7
2019-01-08T07:22:49.748Z,4.4
2019-01-08T07:24:49.753Z,4.2
2019-01-08T07:26:49.997Z,4.1
2019-01-08T07:28:50.015Z,4.1
2019-01-08T07:30:50.060Z,4.1
2019-01-08T07:32:50.058Z,4.1
2019-01-08T07:34:50.389Z,4.5
2019-01-08T07:36:49.597Z,3.9
2019-01-08T07:38:49.533Z,3.9
2019-01-08T07:40:49.531Z,4.3
2019-01-08T07:42:49.651Z,4.7
2019-01-08T07:44:49.607Z,4.6
2019-01-08T07:46:49.827Z,4.6
2019-01-08T07:48:49.810Z,4.6
2019-01-08T07:50:49.811Z,4.6
2019-01-08T07:52:49.848Z,3.9
2019-01-08T07:54:49.929Z,3.6
2019-01-08T07:56:50.166Z,3.5
2019-01-08T07:58:50.145Z,4.1
2019-01-08T08:00:50.475Z,4.1
2019-01-08T08:02:50.421Z,3.7
2019-01-08T08:04:49.816Z,3.7
2019-01-08T08:06:50.020Z,3.7
2019-01-08T08:08:49.977Z,3.9
2019-01-08T08:10:50.003Z,3.8
2019-01-08T08:12:50.019Z,3.3
2019-01-08T08:14:49.965Z,3.3
2019-01-08T08:16:50.219Z,3.3
2019-01-08T08:18:50.211Z,3.5
2019-01-08T08:20:50.200Z,3.5
2019-01-08T08:22:50.158Z,3.3
2019-01-08T08:24:50.276Z,3.5
2019-01-08T08:26:50.404Z,4.0
2019-01-08T08:28:50.464Z,4.0
2019-01-08T08:30:59.142Z,3.3
2019-01-08T08:32:50.242Z,3.7
2019-01-08T08:34:49.667Z,3.7
2019-01-08T08:36:49.846Z,3.6
2019-01-08T08:38:49.820Z,3.6
2019-01-08T08:40:49.755Z,3.8
2019-01-08T08:42:49.791Z,3.6
2019-01-08T08:44:49.739Z,3.6
2019-01-08T08:46:49.912Z,3.8
2019-01-08T08:48:49.921Z,3.8
2019-01-08T08:50:49.865Z,3.6
2019-01-08T08:52:49.910Z,3.8
2019-01-08T08:54:49.903Z,3.5
2019-01-08T08:56:50.008Z,4.0
2019-01-08T08:58:49.982Z,4.0
2019-01-08T09:00:49.941Z,3.9
2019-01-08T09:02:49.968Z,3.6
2019-01-08T09:04:50.267Z,3.5
2019-01-08T09:06:50.412Z,3.5
2019-01-08T09:08:50.435Z,3.9
2019-01-08T09:10:50.379Z,3.7
2019-01-08T09:12:49.529Z,4.0
2019-01-08T09:14:50.498Z,4.0
2019-01-08T09:16:49.637Z,3.7
2019-01-08T09:18:49.721Z,3.3
2019-01-08T09:20:49.708Z,3.6
2019-01-08T09:22:49.690Z,3.9
2019-01-08T09:24:49.719Z,3.9
2019-01-08T09:26:49.928Z,3.9
2019-01-08T09:28:49.876Z,3.8
2019-01-08T09:30:49.902Z,3.7
2019-01-08T09:32:49.797Z,4.0
2019-01-08T09:34:50.198Z,3.7
2019-01-08T09:36:50.508Z,3.7
2019-01-08T09:38:50.571Z,3.7
2019-01-08T09:40:49.515Z,4.1
2019-01-08T09:42:49.595Z,4.1
2019-01-08T09:44:49.529Z,3.6
2019-01-08T09:46:49.786Z,3.6
2019-01-08T09:48:49.768Z,3.4
2019-01-08T09:50:49.788Z,3.3
2019-01-08T09:52:49.760Z,3.1
2019-01-08T09:54:49.796Z,3.4
2019-01-08T09:56:49.925Z,3.4
2019-01-08T09:58:49.873Z,4.0
2019-01-08T10:00:49.868Z,3.2
2019-01-08T10:02:49.863Z,3.6
2019-01-08T10:04:50.145Z,3.6
2019-01-08T10:06:50.298Z,3.4
2019-01-08T10:08:50.205Z,3.3
2019-01-08T10:10:50.261Z,3.3
2019-01-08T10:12:50.396Z,3.6
2019-01-08T10:14:50.326Z,3.6
2019-01-08T10:16:49.542Z,3.4
2019-01-08T10:18:49.601Z,3.9
2019-01-08T10:20:49.636Z,3.7
2019-01-08T10:22:49.680Z,3.8
2019-01-08T10:24:49.673Z,3.8
2019-01-08T10:26:49.964Z,3.8
2019-01-08T10:28:49.961Z,3.7
2019-01-08T10:30:50.058Z,3.4
2019-01-08T10:32:50.005Z,3.9
2019-01-08T10:34:50.284Z,3.9
2019-01-08T10:36:50.479Z,3.6
2019-01-08T10:38:50.512Z,4.0
2019-01-08T10:40:49.637Z,3.3
2019-01-08T10:42:49.658Z,3.3
2019-01-08T10:44:49.695Z,3.2
2019-01-08T10:46:49.885Z,3.3
2019-01-08T10:48:49.922Z,3.5
2019-01-08T10:50:49.933Z,2.9
2019-01-08T10:52:49.914Z,2.9
2019-01-08T10:54:49.853Z,3.2
2019-01-08T10:56:49.980Z,3.4
2019-01-08T10:58:50.003Z,3.8
2019-01-08T11:00:50.115Z,3.8
2019-01-08T11:02:50.099Z,3.3
2019-01-08T11:04:50.380Z,3.6
2019-01-08T11:06:49.586Z,4.0
2019-01-08T11:08:49.676Z,3.3
2019-01-08T11:10:49.704Z,3.1
2019-01-08T11:12:49.744Z,3.1
2019-01-08T11:14:49.752Z,3.3
2019-01-08T11:16:50.815Z,3.5
2019-01-08T11:18:49.776Z,3.2
2019-01-08T11:20:49.744Z,4.0
2019-01-08T11:22:49.740Z,4.0
2019-01-08T11:24:49.763Z,3.6
2019-01-08T11:26:49.895Z,4.0
2019-01-08T11:28:49.939Z,3.5
2019-01-08T11:30:49.945Z,3.6
2019-01-08T11:32:49.896Z,3.6
2019-01-08T11:34:50.206Z,4.0
2019-01-08T11:36:50.457Z,4.1
2019-01-08T11:38:50.401Z,4.1
2019-01-08T11:40:50.489Z,4.0
2019-01-08T11:42:50.398Z,4.0
2019-01-08T11:44:50.386Z,4.2
2019-01-08T11:46:49.705Z,4.1
2019-01-08T11:48:49.771Z,4.4
2019-01-08T11:50:49.746Z,4.4
2019-01-08T11:52:49.743Z,3.8
2019-01-08T11:54:49.765Z,3.9
2019-01-08T11:56:49.964Z,3.7
2019-01-08T11:58:50.047Z,4.1
2019-01-08T12:00:49.981Z,4.1
2019-01-08T12:02:49.975Z,4.4
2019-01-08T12:04:50.106Z,3.1
2019-01-08T12:06:50.394Z,3.1
2019-01-08T12:08:50.445Z,4.2
2019-01-08T12:10:50.374Z,4.1
2019-01-08T12:12:50.357Z,4.4
2019-01-08T12:14:50.308Z,4.4
2019-01-08T12:16:49.557Z,4.4
2019-01-08T12:18:50.511Z,4.4
2019-01-08T12:20:49.538Z,4.3
2019-01-08T12:22:49.582Z,4.5
2019-01-08T12:24:49.644Z,4.4
2019-01-08T12:26:49.906Z,4.3
2019-01-08T12:28:49.924Z,4.1
2019-01-08T12:30:49.870Z,4.1
2019-01-08T12:32:49.823Z,3.7
2019-01-08T12:34:50.074Z,3.5
2019-01-08T12:36:50.304Z,4.0
2019-01-08T12:38:50.344Z,4.0
2019-01-08T12:40:50.345Z,3.6
2019-01-08T12:42:50.387Z,3.3
2019-01-08T12:44:50.353Z,3.3
2019-01-08T12:46:49.568Z,3.1
2019-01-08T12:48:49.554Z,3.1
2019-01-08T12:50:49.579Z,3.0
2019-01-08T12:52:49.578Z,2.7
2019-01-08T12:54:49.638Z,2.4
2019-01-08T12:56:49.853Z,2.4
2019-01-08T12:58:49.797Z,3.1
2019-01-08T13:00:49.806Z,2.8
2019-01-08T13:02:49.805Z,2.8
2019-01-08T13:04:50.070Z,2.8
2019-01-08T13:06:50.284Z,2.6
2019-01-08T13:08:50.231Z,2.6
2019-01-08T13:10:50.244Z,3.0
2019-01-08T13:12:50.207Z,2.7
2019-01-08T13:14:50.138Z,2.8
2019-01-08T13:16:50.349Z,2.8
2019-01-08T13:18:50.297Z,3.1
2019-01-08T13:20:50.267Z,2.8
2019-01-08T13:22:50.200Z,2.6
2019-01-08T13:24:50.299Z,2.4
2019-01-08T13:26:50.484Z,2.4
2019-01-08T13:28:50.470Z,2.7
2019-01-08T13:30:50.508Z,2.8
2019-01-08T13:32:49.519Z,2.5
2019-01-08T13:34:49.857Z,2.6
2019-01-08T13:36:50.099Z,2.6
2019-01-08T13:38:50.134Z,2.8
2019-01-08T13:40:50.113Z,2.8
2019-01-08T13:42:50.084Z,2.8
2019-01-08T13:44:50.034Z,2.6
2019-01-08T13:46:50.220Z,2.6
2019-01-08T13:48:50.211Z,2.8
2019-01-08T13:50:50.208Z,2.5
2019-01-08T13:52:50.170Z,2.5
2019-01-08T13:54:50.182Z,2.5
2019-01-08T13:56:50.364Z,2.5
2019-01-08T13:58:50.385Z,2.4
2019-01-08T14:00:50.430Z,2.2
2019-01-08T14:02:50.444Z,2.2
2019-01-08T14:04:49.701Z,2.4
2019-01-08T14:06:49.903Z,2.4
2019-01-08T14:08:49.960Z,2.7
2019-01-08T14:10:56.860Z,2.4
2019-01-08T14:12:51.721Z,2.1
2019-01-08T14:14:49.739Z,2.1
2019-01-08T14:16:49.928Z,2.4
2019-01-08T14:18:49.939Z,2.3
2019-01-08T14:20:49.903Z,2.3
2019-01-08T14:22:49.903Z,2.1
2019-01-08T14:24:49.894Z,2.1
2019-01-08T14:26:50.249Z,2.2
2019-01-08T14:28:50.281Z,2.1
2019-01-08T14:30:50.252Z,2.1
2019-01-08T14:32:50.327Z,1.9
2019-01-08T14:34:49.535Z,1.9
2019-01-08T14:36:49.792Z,2.6
2019-01-08T14:38:49.774Z,2.4
2019-01-08T14:40:49.711Z,2.4
2019-01-08T14:42:49.773Z,2.4
2019-01-08T14:44:49.785Z,2.4
2019-01-08T14:46:49.943Z,2.2
2019-01-08T14:48:49.920Z,2.3
2019-01-08T14:50:49.974Z,2.0
2019-01-08T14:52:49.934Z,2.3
2019-01-08T14:54:49.901Z,2.3
2019-01-08T14:56:50.035Z,2.1
2019-01-08T14:58:50.046Z,2.4
2019-01-08T15:00:50.023Z,2.3
2019-01-08T15:02:50.119Z,2.6
2019-01-08T15:04:50.284Z,2.6
2019-01-08T15:06:50.384Z,2.7
2019-01-08T15:08:49.612Z,2.7
2019-01-08T15:10:49.563Z,3.1
2019-01-08T15:12:49.563Z,3.1
2019-01-08T15:14:50.605Z,2.9
2019-01-08T15:16:49.963Z,2.5
2019-01-08T15:18:50.033Z,2.8
2019-01-08T15:20:50.008Z,2.8
2019-01-08T15:22:49.959Z,2.8
2019-01-08T15:24:50.038Z,2.3
2019-01-08T15:26:50.161Z,2.5
2019-01-08T15:28:50.166Z,2.5
2019-01-08T15:30:50.162Z,2.2
2019-01-08T15:32:58.658Z,2.2
2019-01-08T15:34:50.171Z,2.0
2019-01-08T15:36:50.401Z,1.9
2019-01-08T15:38:50.317Z,1.9
2019-01-08T15:40:50.315Z,1.7
2019-01-08T15:42:50.311Z,1.7
2019-01-08T15:44:50.245Z,2.2
2019-01-08T15:46:50.513Z,2.0
2019-01-08T15:48:49.568Z,2.3
2019-01-08T15:50:50.506Z,2.3
2019-01-08T15:52:49.513Z,2.0
2019-01-08T15:54:49.574Z,2.5
2019-01-08T15:56:49.773Z,2.1
2019-01-08T15:58:49.724Z,2.2
2019-01-08T16:00:49.835Z,2.2
2019-01-08T16:02:50.003Z,2.1
2019-01-08T16:04:50.176Z,2.0
2019-01-08T16:06:50.294Z,2.0
2019-01-08T16:08:50.335Z,2.0
2019-01-08T16:10:50.395Z,2.0
2019-01-08T16:12:50.334Z,2.2
2019-01-08T16:14:50.344Z,2.3
2019-01-08T16:16:49.555Z,2.0
2019-01-08T16:18:49.545Z,2.0
2019-01-08T16:20:49.568Z,2.0
2019-01-08T16:22:49.541Z,2.3
2019-01-08T16:24:49.560Z,2.1
2019-01-08T16:26:49.838Z,2.2
2019-01-08T16:28:49.823Z,2.2
2019-01-08T16:30:49.783Z,2.2
2019-01-08T16:32:49.802Z,2.5
2019-01-08T16:34:49.955Z,2.9
2019-01-08T16:36:50.103Z,2.9
2019-01-08T16:38:50.130Z,2.4
2019-01-08T16:40:50.194Z,2.3
2019-01-08T16:42:50.183Z,2.7
2019-01-08T16:44:50.117Z,2.8
2019-01-08T16:46:50.223Z,2.9
2019-01-08T16:48:50.219Z,2.9
2019-01-08T16:50:50.250Z,3.1
2019-01-08T16:52:50.356Z,2.9
2019-01-08T16:54:50.352Z,2.9
2019-01-08T16:56:49.539Z,2.7
2019-01-08T16:58:49.539Z,2.7
2019-01-08T17:00:49.675Z,3.3
2019-01-08T17:02:49.604Z,3.7
2019-01-08T17:04:50.099Z,3.7
2019-01-08T17:06:50.221Z,3.5
2019-01-08T17:08:50.171Z,3.5
2019-01-08T17:10:50.176Z,3.2
2019-01-08T17:12:50.116Z,3.4
2019-01-08T17:14:50.158Z,3.6
2019-01-08T17:16:50.263Z,3.6
2019-01-08T17:18:50.357Z,3.6
2019-01-08T17:20:50.409Z,3.4
2019-01-08T17:22:50.383Z,3.4
2019-01-08T17:24:50.361Z,3.4
2019-01-08T17:26:49.527Z,3.4
2019-01-08T17:28:49.582Z,3.2
2019-01-08T17:30:49.622Z,3.4
2019-01-08T17:32:49.656Z,3.4
2019-01-08T17:34:50.017Z,2.9
2019-01-08T17:36:50.178Z,2.9
2019-01-08T17:38:50.181Z,3.1
2019-01-08T17:40:50.226Z,3.4
2019-01-08T17:42:50.224Z,3.4
2019-01-08T17:44:50.280Z,3.2
2019-01-08T17:46:49.614Z,3.2
2019-01-08T17:48:49.540Z,3.7
2019-01-08T17:50:49.555Z,5.0
2019-01-08T17:52:49.567Z,5.3
2019-01-08T17:54:49.617Z,4.0
2019-01-08T17:56:49.839Z,4.0
2019-01-08T17:58:49.835Z,3.9
2019-01-08T18:00:49.856Z,3.6
2019-01-08T18:02:49.790Z,3.9
2019-01-08T18:04:50.082Z,3.3
2019-01-08T18:06:50.332Z,3.3
2019-01-08T18:08:50.341Z,3.9
2019-01-08T18:10:50.293Z,3.6
2019-01-08T18:12:50.280Z,3.7
2019-01-08T18:14:50.440Z,3.7
2019-01-08T18:16:49.712Z,4.2
2019-01-08T18:18:49.789Z,3.7
2019-01-08T18:20:49.891Z,3.2
2019-01-08T18:22:50.095Z,2.9
2019-01-08T18:24:50.153Z,2.9
2019-01-08T18:26:50.454Z,3.6
2019-01-08T18:28:49.567Z,3.4
2019-01-08T18:30:49.691Z,3.4
2019-01-08T18:32:49.843Z,3.4
2019-01-08T18:34:50.136Z,3.4
2019-01-08T18:36:50.292Z,3.3
2019-01-08T18:38:50.343Z,3.4
2019-01-08T18:40:50.297Z,3.9
2019-01-08T18:42:50.241Z,3.9
2019-01-08T18:44:50.184Z,3.1
2019-01-08T18:46:50.465Z,2.8
2019-01-08T18:48:50.365Z,3.6
2019-01-08T18:50:50.360Z,3.6
2019-01-08T18:52:49.727Z,3.6
2019-01-08T18:54:50.081Z,3.0
2019-01-08T18:56:49.545Z,3.2
2019-01-08T18:58:49.699Z,3.3
2019-01-08T19:00:49.748Z,3.3
2019-01-08T19:02:49.828Z,3.5
2019-01-08T19:04:50.285Z,3.3
2019-01-08T19:06:50.380Z,4.0
2019-01-08T19:08:50.416Z,4.0
2019-01-08T19:10:49.819Z,3.1
2019-01-08T19:12:49.758Z,3.1
2019-01-08T19:14:49.858Z,3.7
2019-01-08T19:16:50.354Z,3.3
2019-01-08T19:18:50.412Z,3.3
2019-01-08T19:20:50.431Z,3.5
2019-01-08T19:22:49.638Z,3.5
2019-01-08T19:24:51.034Z,3.4
2019-01-08T19:26:50.313Z,3.0
2019-01-08T19:28:50.279Z,2.9
2019-01-08T19:30:50.325Z,2.9
2019-01-08T19:32:50.284Z,3.2
2019-01-08T19:34:49.531Z,3.5
2019-01-08T19:36:49.600Z,3.5
2019-01-08T19:38:49.650Z,3.3
2019-01-08T19:40:49.590Z,3.3
2019-01-08T19:42:49.634Z,3.2
2019-01-08T19:44:49.645Z,3.4
2019-01-08T19:46:49.775Z,3.6
2019-01-08T19:48:49.677Z,3.6
2019-01-08T19:50:49.667Z,3.6
2019-01-08T19:52:49.754Z,3.5
2019-01-08T19:54:49.743Z,3.3
2019-01-08T19:56:50.078Z,3.3
2019-01-08T19:58:50.070Z,3.6
2019-01-08T20:00:50.097Z,3.6
2019-01-08T20:02:50.141Z,2.7
2019-01-08T20:04:50.542Z,2.9
2019-01-08T20:06:49.705Z,3.0
2019-01-08T20:08:49.807Z,3.0
2019-01-08T20:10:49.791Z,3.0
2019-01-08T20:12:49.785Z,3.2
2019-01-08T20:14:49.774Z,3.0
2019-01-08T20:16:50.082Z,2.7
2019-01-08T20:18:50.128Z,2.7
2019-01-08T20:20:50.100Z,2.5
2019-01-08T20:22:50.138Z,3.3
2019-01-08T20:24:50.126Z,2.8
2019-01-08T20:26:50.169Z,3.1
2019-01-08T20:28:50.204Z,3.1
2019-01-08T20:30:50.250Z,2.7
2019-01-08T20:32:50.271Z,2.7
2019-01-08T20:34:49.535Z,2.7
2019-01-08T20:36:49.698Z,2.9
2019-01-08T20:38:49.746Z,3.1
2019-01-08T20:40:49.771Z,3.0
2019-01-08T20:42:49.683Z,2.7
2019-01-08T20:44:49.839Z,2.6
2019-01-08T20:46:50.176Z,3.3
2019-01-08T20:48:50.426Z,2.4
2019-01-08T20:50:50.446Z,2.4
2019-01-08T20:52:50.428Z,2.8
2019-01-08T20:54:50.470Z,2.7
2019-01-08T20:56:49.684Z,3.1
2019-01-08T20:58:49.700Z,3.1
2019-01-08T21:00:49.659Z,2.9
2019-01-08T21:02:49.732Z,3.0
2019-01-08T21:04:50.154Z,2.9
2019-01-08T21:06:50.459Z,2.9
2019-01-08T21:08:49.569Z,3.3
2019-01-08T21:10:49.733Z,3.0
2019-01-08T21:12:49.731Z,3.4
2019-01-08T21:14:49.754Z,3.1
2019-01-08T21:16:49.972Z,2.4
2019-01-08T21:18:50.083Z,2.4
2019-01-08T21:20:50.114Z,2.6
2019-01-08T21:22:50.191Z,2.9
2019-01-08T21:24:50.170Z,3.0
2019-01-08T21:26:50.455Z,3.0
2019-01-08T21:28:50.402Z,3.2
2019-01-08T21:30:50.415Z,3.1
2019-01-08T21:32:50.407Z,2.9
2019-01-08T21:34:49.833Z,2.8
2019-01-08T21:36:49.936Z,2.8
2019-01-08T21:38:49.947Z,2.9
2019-01-08T21:40:49.997Z,2.9
2019-01-08T21:42:50.031Z,2.9
2019-01-08T21:44:49.970Z,3.7
2019-01-08T21:46:50.116Z,3.7
2019-01-08T21:48:50.142Z,3.9
2019-01-08T21:50:50.208Z,3.7
2019-01-08T21:52:50.256Z,3.2
2019-01-08T21:54:50.208Z,3.2
2019-01-08T21:56:50.292Z,4.0
2019-01-08T21:58:50.255Z,3.9
2019-01-08T22:00:50.217Z,4.0
2019-01-08T22:02:50.238Z,3.4
2019-01-08T22:04:53.546Z,3.4
2019-01-08T22:06:49.793Z,3.4
2019-01-08T22:08:49.934Z,3.5
2019-01-08T22:10:49.915Z,3.5
2019-01-08T22:12:49.922Z,4.0
2019-01-08T22:14:49.940Z,3.8
2019-01-08T22:16:50.096Z,3.8
2019-01-08T22:18:50.151Z,3.3
2019-01-08T22:20:50.143Z,3.3
2019-01-08T22:22:53.061Z,3.1
2019-01-08T22:24:50.026Z,3.1
2019-01-08T22:26:50.134Z,3.9
2019-01-08T22:28:50.128Z,4.2
2019-01-08T22:30:50.132Z,4.2
2019-01-08T22:32:50.115Z,4.2
2019-01-08T22:34:50.369Z,3.7
2019-01-08T22:36:49.539Z,4.1
2019-01-08T22:38:50.682Z,4.1
2019-01-08T22:40:49.772Z,4.1
2019-01-08T22:42:49.805Z,4.2
2019-01-08T22:44:49.760Z,4.2
2019-01-08T22:46:49.938Z,4.3
2019-01-08T22:48:49.909Z,4.3
2019-01-08T22:50:49.864Z,4.2
2019-01-08T22:52:50.004Z,3.3
2019-01-08T22:54:50.008Z,3.3
2019-01-08T22:56:50.225Z,3.5
2019-01-08T22:58:50.191Z,3.3
2019-01-08T23:00:50.251Z,3.3
2019-01-08T23:02:50.197Z,3.3
2019-01-08T23:04:49.763Z,3.0
2019-01-08T23:06:50.038Z,3.0
2019-01-08T23:08:50.087Z,3.3
2019-01-08T23:10:50.089Z,3.1
2019-01-08T23:12:50.059Z,3.1
2019-01-08T23:14:50.090Z,3.6
2019-01-08T23:16:50.214Z,4.1
2019-01-08T23:18:50.321Z,3.4
2019-01-08T23:20:50.334Z,3.8
2019-01-08T23:22:50.363Z,3.8
2019-01-08T23:24:50.395Z,2.9
2019-01-08T23:26:49.586Z,3.3
2019-01-08T23:28:49.698Z,3.3
2019-01-08T23:30:49.650Z,3.1
2019-01-08T23:32:49.652Z,3.7
2019-01-08T23:34:50.109Z,3.2
2019-01-08T23:36:50.347Z,2.9
2019-01-08T23:38:50.386Z,2.9
2019-01-08T23:40:50.414Z,3.1
2019-01-08T23:42:49.565Z,3.8
2019-01-08T23:44:49.531Z,3.5
2019-01-08T23:46:49.754Z,3.3
2019-01-08T23:48:49.707Z,3.2
2019-01-08T23:50:49.702Z,3.2
2019-01-08T23:52:49.734Z,3.4
2019-01-08T23:54:49.742Z,2.9
2019-01-08T23:56:49.838Z,3.4
2019-01-08T23:58:49.842Z,3.3
